30PA weather

Kings Airport
Schwenksville, Pennsylvania, United States

Public forecast

Using degrees Fahrenheit for public forecast. Weather courtesy of forecast.io.

Closest aviation weather report (METAR) to Kings Airport

Closest report is Heritage Field, 5.8 nm (10.7 km) WSW. Retrieved 2020/08/03 10:54 UTC (21 minutes ago):

KPTW 031054Z AUTO 00000KT 9SM CLR 22/16 A3003 RMK AO2 SLP164 T02170161

Closest aviation forecast (TAF) to Kings Airport

Closest forecast is Northeast Philadelphia Airport, 22.5 nm (41.7 km) ESE. Retrieved 2020/08/03 06:22 UTC (5 hours ago):

TAF KPNE 030520Z 0306/0406 23008KT P6SM BKN150 FM030900 VRB05KT P6SM SCT150 FM031600 26007KT P6SM BKN100 FM032200 23006KT P6SM VCSH OVC090 FM040000 22006KT 6SM SHRA VCTS OVC080CB